Historyczne dane pomiarowe

Dodano dane terminowe – wersja testowa.

Dane z okresu 1951-2019

Wersja bazy: 1.34 [2019-03-16, lista zmian], aktualizacja planowana na 2019-04-15

Dane meteo z obszaru Polski uzyskane na podstawie danych udostępnionych przez Instytut Meteorologii i Gospodarki Wodnej – Państwowy Instytut Badawczy.

 

Wybierz Datę:    

       

TemperaturaWilgotnośćZachmurzenieWiatrCiśnienieWidzialnośćZjawiska
 Data    tng td wb rh cc ccl cl cm ch dir g1 g2 mslp ppp      
1999-07-21 00:00:00 17.4--- 15.8 16.490wxwxwx1wx--1014.2 990.0 0.0---wxw1
1999-07-21 01:00:00 16.8--- 15.4 15.991wxwx1wx--1014.2 989.9----wx
1999-07-21 02:00:00 16.5--- 15.2 15.792wxwxwx1wx--1014.0 989.7----wx
1999-07-21 03:00:00 16.1--- 14.8 15.392wxwxwxwx3wx--1013.9 989.6----wx
1999-07-21 04:00:00 17.8--- 15.7 16.588wxwxwxwxwx4wx--1013.9 989.7----wx
1999-07-21 05:00:00 19.6--- 16.3 17.581wxwxwxwx3wx--1013.5 989.5----wx
1999-07-21 06:00:00 21.0--- 16.5 18.175wxwxwx4wx--1013.5 989.6 0.0---wx
1999-07-21 07:00:00 24.2--- 16.5 19.262wxwxwxwx5wx--1013.2 989.5----wx
1999-07-21 08:00:00 26.2--- 16.4 19.855wxwxwxwx4wx--1013.1 989.6----wx
1999-07-21 09:00:00 26.2--- 15.7 19.452wxwxwxwx3wx--1013.1 989.6----wx
1999-07-21 10:00:00 27.0--- 16.6 20.253wxwxwxwx6wx--1012.7 989.3----wx
1999-07-21 11:00:00 27.8--- 15.8 20.048wxwxwxwx5wx--1012.3 988.9----wx
1999-07-21 12:00:00 27.8--- 15.8 20.048wxwxwxwx6wx--1011.5 988.2 0.0---wx
1999-07-21 13:00:00 29.4--- 14.8 20.041wxwxwx6wx--1011.1 987.9----wx
1999-07-21 14:00:00 21.4--- 19.3 20.088wxwxwx5wx--1012.5 988.6----wxw1
1999-07-21 15:00:00 23.4--- 17.3 19.469wxwxwxwx5wx--1012.0 988.3----wxw1
1999-07-21 16:00:00 24.1--- 17.9 20.068wxwxwxwx3wx--1011.4 987.8----wx
1999-07-21 17:00:00 24.2--- 17.9 20.068wxwxwxwxwx4wx--1011.1 987.5----wx
1999-07-21 18:00:00 22.6--- 17.4 19.273wxwxwxwx5wx--1011.3 987.6 0.3---wxw1
1999-07-21 19:00:00 20.8--- 16.3 17.975wxwxwxwx1wx--1012.0 988.1----wx
1999-07-21 20:00:00 20.4--- 16.8 18.180wxwxwx2wx--1012.3 988.4----wx
1999-07-21 21:00:00 20.1--- 17.3 18.384wxwxwxwx2wx--1012.3 988.3----wx
1999-07-21 22:00:00 19.5--- 17.7 18.389wxwxwx2wx--1012.4 988.4----wx
1999-07-21 23:00:00 19.0--- 17.3 17.990wxwxwx2wx--1013.2 989.1----wx

 

Źródłem pochodzenia danych jest Instytut Meteorologii i Gospodarki Wodnej – Państwowy Instytut Badawczy. Dane Instytutu Meteorologii i Gospodarki Wodnej – Państwowego Instytutu Badawczego zostały przetworzone.

Dane źródłowe można odnaleźć na stronie https://dane.imgw.pl